Algonquin, Illinois
Current Conditions -  °F | °C
As of 10:52 PM on Saturday 25 Oct 2014 (Local Time) from KDPA Reporting Station
Clear Clear  
Wind Chill: 12°   Ceiling: Unl
Heat Index: 12°   Visibility: 10mi
Dew Point: -2°   Wind: 9mph
Humidity: 40%   Direction: 300°WNW
Pressure: 29.98"   Gusts: NA
Location:  42.17°N, 88.29°W
Report Text: KDPA 260352Z 30008KT 10SM CLR 12/M02 A2998 RMK AO2 SLP151 T01171017
Loading
Personal Weather Stations






























Interactive Weather Map
Tropical Storm Tracking
New forecast layout! Learn more

10-Day Weather Forecast

Advertisements
Track Severe Weather on mobile